Time;durP1;ratioP1;P1;durP2;ratioP2;P2;SDS_P1;SDS_P2;PMS_P1;PMS_P2;Temp;Humidity;BMP_temperature;BMP_pressure;BME280_temperature;BME280_humidity;BME280_pressure;Samples;Min_cycle;Max_cycle;Signal;HPM_P1;HPM_P2
2024/02/21 05:11:44;;;;;;;36.92;18.05;;;;;;;9.96;83.25;100052.47;5010638;24;20118;-77
2024/02/21 05:14:14;;;;;;;33.13;17.33;;;;;;;9.96;83.31;100034.06;4825125;29;20512;-77
2024/02/21 05:16:41;;;;;;;33.10;16.70;;;;;;;10.03;83.62;100039.88;4841635;29;20057;-77
2024/02/21 05:19:07;;;;;;;35.42;17.75;;;;;;;10.04;83.60;100041.56;4841634;29;20062;-76
2024/02/21 05:21:35;;;;;;;42.40;18.73;;;;;;;10.07;83.39;100049.31;4825449;29;20073;-81
2024/02/21 05:24:03;;;;;;;31.27;18.02;;;;;;;10.09;83.65;100044.81;4825348;29;20512;-80
2024/02/21 05:26:31;;;;;;;34.15;17.30;;;;;;;10.11;83.08;100029.81;4825153;29;20066;-79
2024/02/21 05:28:59;;;;;;;38.03;17.98;;;;;;;10.13;82.92;100038.47;4825241;29;20069;-77
2024/02/21 05:31:56;;;;;;;33.50;17.95;;;;;;;10.13;82.13;100021.84;4825067;29;20115;-78
2024/02/21 05:34:23;;;;;;;30.08;16.58;;;;;;;10.19;82.78;100032.06;4825119;29;20101;-77
2024/02/21 05:36:50;;;;;;;31.88;16.55;;;;;;;10.19;82.48;100025.94;4825172;29;20149;-77
2024/02/21 05:39:19;;;;;;;27.15;16.20;;;;;;;10.21;82.46;100018.81;4824698;29;20069;-77
2024/02/21 05:41:47;;;;;;;33.97;15.23;;;;;;;10.21;82.53;100014.41;4824942;29;20122;-79
2024/02/21 05:44:15;;;;;;;27.98;16.55;;;;;;;10.24;82.46;100022.13;4824967;29;20062;-77
2024/02/21 05:46:43;;;;;;;32.88;17.52;;;;;;;10.23;82.25;100023.06;4825017;29;20062;-77
2024/02/21 05:49:10;;;;;;;34.35;16.27;;;;;;;10.24;82.33;100006.34;4824778;29;20093;-76
2024/02/21 05:51:38;;;;;;;26.02;15.18;;;;;;;10.27;82.51;100022.00;4824955;29;20070;-78
2024/02/21 05:54:07;;;;;;;29.85;14.70;;;;;;;10.27;82.03;100024.63;4824973;29;20069;-78
2024/02/21 05:56:35;;;;;;;33.08;16.25;;;;;;;10.28;82.63;100026.31;4840936;29;20065;-77
2024/02/21 05:59:02;;;;;;;29.38;15.65;;;;;;;10.29;82.11;100041.16;4824359;29;20508;-79
2024/02/21 06:01:29;;;;;;;29.63;15.35;;;;;;;10.31;82.29;100020.03;4825141;29;20064;-80
2024/02/21 06:03:56;;;;;;;26.92;14.30;;;;;;;10.30;81.94;100024.47;4842550;29;20065;-78
2024/02/21 06:06:24;;;;;;;25.52;14.10;;;;;;;10.30;81.79;100021.84;4825692;29;20093;-79
2024/02/21 06:08:52;;;;;;;27.67;15.63;;;;;;;10.30;81.74;100031.50;4824835;29;20054;-77
2024/02/21 06:11:19;;;;;;;28.67;13.73;;;;;;;10.32;81.98;100019.09;4824756;29;20065;-80
2024/02/21 06:13:47;;;;;;;29.70;14.65;;;;;;;10.32;81.89;100026.16;4824950;29;20145;-77
2024/02/21 06:16:14;;;;;;;30.00;14.80;;;;;;;10.30;81.21;100007.81;4824970;29;20134;-79
2024/02/21 06:18:41;;;;;;;27.70;14.27;;;;;;;10.32;81.77;99997.22;4824561;29;20102;-83
2024/02/21 06:21:08;;;;;;;25.15;13.95;;;;;;;10.29;81.50;99990.34;4840747;29;20504;-77
2024/02/21 06:23:37;;;;;;;27.85;13.90;;;;;;;10.29;81.26;99987.72;4840801;29;20053;-78
2024/02/21 06:26:04;;;;;;;27.10;14.65;;;;;;;10.30;81.46;99994.66;4824479;29;20061;-79
2024/02/21 06:28:31;;;;;;;29.75;14.60;;;;;;;10.31;81.20;99993.72;4840559;29;20058;-77
2024/02/21 06:30:59;;;;;;;24.58;13.18;;;;;;;10.32;81.44;99981.44;4840885;29;20515;-84
2024/02/21 06:33:27;;;;;;;26.48;14.25;;;;;;;10.32;81.22;99990.16;4824708;29;20062;-77
2024/02/21 06:35:55;;;;;;;27.10;13.65;;;;;;;10.30;81.26;99977.13;4824509;29;20061;-81
2024/02/21 06:38:22;;;;;;;26.88;14.93;;;;;;;10.29;81.02;99985.06;4824056;29;20049;-76
2024/02/21 06:40:51;;;;;;;28.40;13.98;;;;;;;10.30;81.41;99971.84;4824454;29;20061;-82
2024/02/21 06:43:20;;;;;;;28.92;13.15;;;;;;;10.29;80.61;99980.66;4823802;29;20062;-78
2024/02/21 06:45:50;;;;;;;29.35;14.02;;;;;;;10.32;81.06;99974.38;4824235;29;20500;-80
2024/02/21 06:48:19;;;;;;;26.35;12.65;;;;;;;10.32;81.08;99968.28;4824279;29;20465;-76
2024/02/21 06:50:46;;;;;;;36.08;14.88;;;;;;;10.32;80.66;99960.38;4824161;29;20198;-77
2024/02/21 06:53:13;;;;;;;26.65;13.60;;;;;;;10.33;81.13;99964.72;4824225;29;20070;-78
2024/02/21 06:55:40;;;;;;;28.15;14.52;;;;;;;10.32;80.90;99960.38;4823961;29;20072;-80
2024/02/21 06:58:11;;;;;;;26.77;14.30;;;;;;;10.32;80.70;99958.59;4823970;29;20064;-77
2024/02/21 07:00:39;;;;;;;28.40;14.48;;;;;;;10.32;80.99;99960.38;4839956;29;20089;-81
2024/02/21 07:03:07;;;;;;;24.23;13.07;;;;;;;10.33;80.98;99962.06;4823801;29;20118;-78
2024/02/21 07:05:34;;;;;;;27.08;12.88;;;;;;;10.33;80.69;99980.50;4823788;29;20122;-77
2024/02/21 07:08:03;;;;;;;27.90;13.48;;;;;;;10.33;80.99;99978.72;4824069;29;20118;-77
2024/02/21 07:10:31;;;;;;;29.95;13.40;;;;;;;10.29;80.34;99967.50;4823901;29;20058;-76
2024/02/21 07:13:00;;;;;;;26.48;13.35;;;;;;;10.30;80.74;99978.88;4823657;29;20397;-77
2024/02/21 07:15:28;;;;;;;25.45;13.05;;;;;;;10.31;80.86;99977.94;4823133;29;20062;-79
2024/02/21 07:17:56;;;;;;;25.17;13.30;;;;;;;10.29;80.58;99991.19;4823056;29;20504;-80
2024/02/21 07:20:23;;;;;;;29.42;13.70;;;;;;;10.30;80.73;99982.38;4823295;29;20069;-81
2024/02/21 07:22:51;;;;;;;24.75;12.48;;;;;;;10.30;80.55;99976.25;4824020;29;20057;-76
2024/02/21 07:25:18;;;;;;;24.92;13.07;;;;;;;10.32;80.84;99979.63;4823575;29;20065;-81
2024/02/21 07:27:44;;;;;;;29.92;13.55;;;;;;;10.32;80.52;99991.97;4823379;29;20149;-77
2024/02/21 07:30:12;;;;;;;21.55;11.77;;;;;;;10.33;80.72;99977.88;4823441;29;20069;-77
2024/02/21 07:32:43;;;;;;;25.63;12.60;;;;;;;10.36;80.77;99985.59;4824026;29;20122;-78
2024/02/21 07:35:11;;;;;;;29.25;13.55;;;;;;;10.36;80.74;99985.59;4823568;29;20062;-79
2024/02/21 07:37:39;;;;;;;24.92;13.00;;;;;;;10.37;80.72;99982.03;4823648;29;20404;-78
2024/02/21 07:40:13;;;;;;;19.85;11.85;;;;;;;10.35;79.40;99979.47;4823299;29;20058;-80
2024/02/21 07:42:40;;;;;;;22.75;12.02;;;;;;;10.37;80.12;99982.91;4823082;29;20065;-77
2024/02/21 07:45:08;;;;;;;24.45;12.73;;;;;;;10.36;79.77;99970.66;4839381;29;20141;-77
2024/02/21 07:47:36;;;;;;;22.52;12.25;;;;;;;10.35;80.11;99991.81;4823213;29;20062;-77
2024/02/21 07:50:07;;;;;;;22.52;12.00;;;;;;;10.33;78.91;99969.97;4823182;29;20375;-82
2024/02/21 07:52:34;;;;;;;26.67;11.60;;;;;;;10.36;79.75;99965.38;4823138;29;20580;-76
2024/02/21 07:55:03;;;;;;;26.65;11.13;;;;;;;10.38;80.18;99965.31;4825207;29;20100;-77
2024/02/21 07:57:31;;;;;;;26.58;11.27;;;;;;;10.38;79.96;99973.22;4826404;29;20066;-78
2024/02/21 07:59:58;;;;;;;33.05;12.45;;;;;;;10.35;79.58;99962.88;4826801;29;20065;-77
2024/02/21 08:02:25;;;;;;;20.52;12.43;;;;;;;10.37;79.89;99960.97;4826262;29;20058;-78
2024/02/21 08:04:52;;;;;;;26.30;11.60;;;;;;;10.36;80.40;99956.66;4826518;29;20122;-79
2024/02/21 08:07:19;;;;;;;23.13;11.68;;;;;;;10.38;80.28;99955.66;4826129;29;20061;-79
2024/02/21 08:09:46;;;;;;;24.95;11.90;;;;;;;10.37;79.77;99953.09;4826496;29;20150;-78
2024/02/21 08:12:13;;;;;;;21.00;10.93;;;;;;;10.37;79.69;99940.78;4826114;29;20058;-76
2024/02/21 08:14:41;;;;;;;22.17;10.57;;;;;;;10.38;79.91;99942.50;4826428;29;20083;-81
2024/02/21 08:17:08;;;;;;;19.85;10.55;;;;;;;10.41;80.16;99938.84;4826240;29;20527;-80
2024/02/21 08:19:36;;;;;;;20.45;10.45;;;;;;;10.40;79.64;99939.78;4826065;29;20061;-77
2024/02/21 08:22:03;;;;;;;17.58;10.55;;;;;;;10.41;79.83;99930.94;4826053;29;20496;-80
2024/02/21 08:24:30;;;;;;;20.20;10.43;;;;;;;10.45;80.13;99932.50;4826093;29;20066;-79
2024/02/21 08:26:58;;;;;;;20.95;10.63;;;;;;;10.44;79.77;99936.09;4826305;29;20198;-79
2024/02/21 08:29:25;;;;;;;21.77;11.32;;;;;;;10.49;79.89;99922.66;4825828;29;20715;-76
2024/02/21 08:31:53;;;;;;;21.30;10.35;;;;;;;10.49;79.64;99909.50;4842348;29;20149;-81
2024/02/21 08:34:21;;;;;;;18.98;10.20;;;;;;;10.53;79.71;99908.41;4842598;29;20073;-78
2024/02/21 08:36:49;;;;;;;22.10;10.60;;;;;;;10.54;79.33;99912.72;4826021;29;20080;-76
2024/02/21 08:39:16;;;;;;;19.90;10.63;;;;;;;10.57;79.66;99898.56;4825516;29;20133;-77
2024/02/21 08:41:43;;;;;;;20.60;10.32;;;;;;;10.57;79.23;99922.28;4825814;29;20061;-77
2024/02/21 08:44:26;;;;;;;20.80;10.60;;;;;;;10.58;78.71;99902.91;4827545;29;20068;-77
2024/02/21 08:46:54;;;;;;;20.75;9.38;;;;;;;10.59;77.95;99907.22;4842191;29;20173;-77
2024/02/21 08:49:21;;;;;;;18.83;9.60;;;;;;;10.62;78.87;99912.34;4825494;29;20557;-78
2024/02/21 08:51:49;;;;;;;19.27;9.88;;;;;;;10.65;78.88;99906.91;4825566;29;20058;-77
2024/02/21 08:54:16;;;;;;;22.40;9.75;;;;;;;10.65;78.19;99896.38;4842443;29;20238;-77
2024/02/21 08:56:44;;;;;;;19.30;9.27;;;;;;;10.67;78.89;99889.22;4825655;29;20066;-79
2024/02/21 08:59:11;;;;;;;22.63;8.90;;;;;;;10.69;79.16;99890.84;4841631;29;20050;-79
2024/02/21 09:01:38;;;;;;;18.75;9.13;;;;;;;10.73;79.29;99888.88;4842020;29;20138;-76
2024/02/21 09:04:05;;;;;;;22.27;9.65;;;;;;;10.77;79.47;99893.03;4825524;29;20137;-77
2024/02/21 09:06:37;;;;;;;23.83;9.38;;;;;;;10.79;78.65;99887.69;4824910;29;20527;-78
2024/02/21 09:09:04;;;;;;;15.10;8.57;;;;;;;10.84;78.92;99884.81;4825385;29;20157;-78
2024/02/21 09:11:34;;;;;;;19.55;8.65;;;;;;;10.89;79.31;99895.94;4841553;29;20143;-79
2024/02/21 09:14:03;;;;;;;21.27;8.82;;;;;;;10.92;79.30;99888.69;4825440;29;20085;-76
2024/02/21 09:16:33;;;;;;;17.23;8.93;;;;;;;10.94;78.10;99900.00;4841544;29;20062;-81
2024/02/21 09:19:00;;;;;;;19.02;9.77;;;;;;;10.96;77.88;99907.84;4825172;29;20069;-79
2024/02/21 09:21:29;;;;;;;21.58;10.18;;;;;;;11.00;78.53;99877.75;4841853;29;20469;-78
2024/02/21 09:23:56;;;;;;;23.77;9.93;;;;;;;11.02;77.91;99878.50;4825495;29;20061;-77
2024/02/21 09:26:26;;;;;;;18.98;9.02;;;;;;;11.03;78.03;99872.28;4825703;29;20058;-77
2024/02/21 09:28:55;;;;;;;20.02;10.00;;;;;;;11.04;77.45;99873.16;4825421;29;20065;-80
2024/02/21 09:31:23;;;;;;;20.33;10.13;;;;;;;11.07;78.12;99865.91;4825109;29;20054;-79
2024/02/21 09:33:51;;;;;;;23.88;10.25;;;;;;;11.08;77.76;99856.22;4825391;29;20169;-78
2024/02/21 09:36:19;;;;;;;22.73;10.20;;;;;;;11.13;78.54;99853.31;4825087;29;20110;-77
2024/02/21 09:38:46;;;;;;;18.42;9.65;;;;;;;11.17;78.38;99852.19;4825207;29;20089;-77
2024/02/21 09:41:20;;;;;;;19.42;9.35;;;;;;;11.20;78.25;99850.25;4825334;29;20150;-76
2024/02/21 09:43:55;;;;;;;20.33;9.38;;;;;;;11.24;77.88;99844.78;4825445;29;20057;-80
2024/02/21 09:47:05;;;;;;;19.73;9.50;;;;;;;11.21;73.62;99845.81;4824954;29;20118;-77
2024/02/21 09:49:35;;;;;;;18.17;8.98;;;;;;;11.29;77.35;99843.56;4841079;29;20057;-76
2024/02/21 09:52:04;;;;;;;20.48;8.63;;;;;;;11.30;77.42;99844.44;4824946;29;20416;-77
2024/02/21 09:54:33;;;;;;;20.05;8.80;;;;;;;11.29;76.63;99834.84;4841237;29;20062;-79
2024/02/21 09:57:00;;;;;;;17.27;8.23;;;;;;;11.31;77.29;99841.72;4824976;29;20158;-76
2024/02/21 09:59:33;;;;;;;18.98;8.40;;;;;;;11.32;77.26;99847.81;4825204;29;20110;-78
2024/02/21 10:02:01;;;;;;;19.67;8.85;;;;;;;11.33;77.13;99842.47;4824500;29;20453;-78
2024/02/21 10:04:29;;;;;;;21.15;9.10;;;;;;;11.36;77.24;99848.50;4824717;29;20563;-77
2024/02/21 10:06:57;;;;;;;15.63;7.65;;;;;;;11.36;76.53;99844.06;4824547;29;20062;-79
2024/02/21 10:09:28;;;;;;;20.48;8.30;;;;;;;11.34;74.91;99838.88;4824536;29;20058;-76
2024/02/21 10:12:09;;;;;;;15.32;7.57;;;;;;;11.35;74.51;99834.47;4824451;29;20062;-78
2024/02/21 10:14:37;;;;;;;19.20;7.43;;;;;;;11.41;76.70;99835.91;4824558;29;20085;-78
2024/02/21 10:17:09;;;;;;;16.70;8.10;;;;;;;11.41;76.49;99828.00;4823512;29;20561;-77
2024/02/21 10:19:37;;;;;;;21.23;8.57;;;;;;;11.41;76.31;99817.44;4824808;29;20095;-76
2024/02/21 10:22:10;;;;;;;20.83;8.73;;;;;;;11.43;75.64;99839.28;4823333;29;20057;-76
2024/02/21 10:24:38;;;;;;;21.73;8.80;;;;;;;11.44;76.60;99812.00;4840613;29;20066;-77
2024/02/21 10:27:10;;;;;;;16.38;8.50;;;;;;;11.42;75.38;99816.50;4824136;29;20155;-76
2024/02/21 10:29:39;;;;;;;;;;;;;;;11.42;71.15;99840.22;4824601;29;20050;-83
2024/02/21 10:32:13;;;;;;;20.98;9.38;;;;;;;11.43;71.31;99808.50;4824352;29;19928;-78
2024/02/21 10:34:42;;;;;;;18.27;9.95;;;;;;;11.44;75.03;99799.66;4840305;29;20058;-76
2024/02/21 10:37:11;;;;;;;19.35;10.05;;;;;;;11.43;75.99;99805.88;4824322;29;20062;-79
2024/02/21 10:39:40;;;;;;;17.35;9.88;;;;;;;11.41;75.40;99804.28;4840111;29;20496;-76
2024/02/21 10:42:10;;;;;;;23.33;10.02;;;;;;;11.39;74.82;99791.19;4823986;29;20053;-83
2024/02/21 10:44:42;;;;;;;20.05;9.88;;;;;;;11.38;75.35;99791.28;4824053;29;20202;-77
2024/02/21 10:47:11;;;;;;;15.10;9.13;;;;;;;11.38;75.63;99781.59;4824059;29;20058;-79
2024/02/21 10:49:44;;;;;;;16.92;9.30;;;;;;;11.38;73.59;99801.81;4824235;29;20302;-78
2024/02/21 10:52:37;;;;;;;25.88;10.20;;;;;;;11.34;72.54;99777.44;4823785;29;20053;-77
2024/02/21 10:55:11;;;;;;;16.27;10.05;;;;;;;11.36;73.85;99770.28;4824341;29;20065;-77
2024/02/21 10:57:39;;;;;;;16.52;9.50;;;;;;;11.38;75.23;99757.00;4823489;29;20065;-79
2024/02/21 11:00:12;;;;;;;16.42;9.60;;;;;;;11.38;74.45;99757.00;4823808;29;20080;-77
2024/02/21 11:02:40;;;;;;;19.08;10.40;;;;;;;11.40;74.93;99753.34;4839943;29;20101;-79
2024/02/21 11:05:07;;;;;;;16.23;10.25;;;;;;;11.47;75.31;99751.16;4840044;29;20069;-76
2024/02/21 11:07:37;;;;;;;17.60;10.00;;;;;;;11.49;74.39;99754.56;4823959;29;20091;-78
2024/02/21 11:10:07;;;;;;;20.35;10.02;;;;;;;11.51;74.63;99747.41;4823927;29;20089;-78
2024/02/21 11:12:34;;;;;;;16.23;9.88;;;;;;;11.56;74.89;99724.25;4839781;29;20660;-77
2024/02/21 11:15:07;;;;;;;15.80;9.13;;;;;;;11.55;72.47;99727.00;4839843;29;20057;-80
2024/02/21 11:17:35;;;;;;;15.05;9.40;;;;;;;11.59;74.96;99708.25;4823556;29;20058;-76
2024/02/21 11:23:27;;;;;;;18.30;9.73;;;;;;;11.65;72.67;99707.03;4925330;23;20062;-77
2024/02/21 11:26:04;;;;;;;16.25;10.02;;;;;;;11.68;72.51;99698.94;4839537;29;20141;-76
2024/02/21 11:28:31;;;;;;;15.27;10.50;;;;;;;11.72;74.64;99687.25;4840396;29;20061;-77
2024/02/21 11:31:38;;;;;;;15.82;11.23;;;;;;;11.69;68.47;99691.84;4827111;29;20401;-77
2024/02/21 11:34:05;;;;;;;16.08;10.48;;;;;;;11.73;74.11;99675.75;4832938;29;20057;-77
2024/02/21 11:36:31;;;;;;;17.95;10.90;;;;;;;11.71;73.82;99680.25;4843391;29;20054;-77
2024/02/21 11:39:04;;;;;;;17.63;11.90;;;;;;;11.70;72.57;99683.03;4843324;29;20056;-78
2024/02/21 11:41:31;;;;;;;20.17;13.98;;;;;;;11.71;74.42;99671.53;4843840;29;20100;-77
2024/02/21 11:43:58;;;;;;;24.38;16.05;;;;;;;11.69;73.33;99691.84;4843326;29;20317;-76
2024/02/21 11:46:27;;;;;;;21.48;16.40;;;;;;;11.63;72.63;99686.97;4843339;29;20088;-77
2024/02/21 11:48:54;;;;;;;21.88;15.55;;;;;;;11.59;73.06;99676.59;4842785;29;20054;-77
2024/02/21 11:51:24;;;;;;;23.25;16.25;;;;;;;11.60;73.32;99672.19;4827005;29;20069;-77
2024/02/21 11:53:54;;;;;;;23.33;16.25;;;;;;;11.54;70.87;99657.59;4826733;29;20062;-78
2024/02/21 11:56:27;;;;;;;18.80;14.20;;;;;;;11.57;72.54;99657.41;4827511;29;20550;-77
2024/02/21 11:58:54;;;;;;;22.60;15.23;;;;;;;11.57;73.16;99648.66;4826415;29;20183;-77
2024/02/21 12:01:21;;;;;;;20.73;13.55;;;;;;;11.58;73.57;99652.97;4842875;29;20491;-77
2024/02/21 12:03:49;;;;;;;20.42;14.50;;;;;;;11.58;73.56;99638.00;4843085;29;20060;-76
2024/02/21 12:06:21;;;;;;;17.13;12.45;;;;;;;11.58;72.92;99652.97;4843029;29;20066;-77
2024/02/21 12:08:48;;;;;;;17.80;12.70;;;;;;;11.59;73.54;99623.88;4842826;29;20072;-78
2024/02/21 12:11:26;;;;;;;17.17;11.93;;;;;;;11.60;74.21;99612.38;4842762;29;20072;-79
2024/02/21 12:14:02;;;;;;;13.77;10.73;;;;;;;11.56;72.38;99608.25;4842651;29;20062;-77
2024/02/21 12:16:32;;;;;;;19.13;11.05;;;;;;;11.60;74.02;99601.84;4842918;29;20057;-76
2024/02/21 12:19:06;;;;;;;16.30;10.15;;;;;;;11.63;73.25;99602.59;4842666;29;20061;-77
2024/02/21 12:21:36;;;;;;;15.20;9.60;;;;;;;11.65;73.96;99593.66;4842363;29;20058;-77
2024/02/21 12:24:17;;;;;;;13.23;9.57;;;;;;;11.65;72.20;99579.59;4842812;29;20122;-77
2024/02/21 12:26:44;;;;;;;11.88;8.43;;;;;;;11.70;74.56;99581.00;4842713;29;20465;-77
2024/02/21 12:29:11;;;;;;;13.77;8.05;;;;;;;11.71;74.31;99582.69;4825998;29;20096;-76
2024/02/21 12:31:38;;;;;;;13.15;8.45;;;;;;;11.70;73.59;99585.47;4842598;29;20054;-76
2024/02/21 12:34:05;;;;;;;11.50;7.75;;;;;;;11.69;74.25;99568.78;4842510;29;20061;-76
2024/02/21 12:36:32;;;;;;;11.52;8.23;;;;;;;11.68;73.85;99568.88;4842476;29;20431;-76
2024/02/21 12:39:01;;;;;;;14.32;7.72;;;;;;;11.65;73.74;99548.81;4825728;29;20552;-76
2024/02/21 12:41:29;;;;;;;12.30;7.80;;;;;;;11.60;73.21;99538.56;4841436;29;20141;-76
2024/02/21 12:43:56;;;;;;;11.85;7.03;;;;;;;11.57;73.40;99530.03;4842191;29;20508;-77
2024/02/21 12:46:23;;;;;;;10.90;7.00;;;;;;;11.55;74.03;99518.75;4842275;29;20427;-76
2024/02/21 12:48:50;;;;;;;9.00;6.68;;;;;;;11.52;73.84;99517.16;4841975;29;20076;-77
2024/02/21 12:51:20;;;;;;;8.80;5.85;;;;;;;11.51;74.18;99488.25;4841889;29;20072;-76
2024/02/21 12:53:49;;;;;;;10.63;5.78;;;;;;;11.51;74.69;99485.63;4842461;29;20065;-77
2024/02/21 12:56:16;;;;;;;8.45;5.88;;;;;;;11.53;75.25;99468.75;4825717;29;20066;-75
2024/02/21 12:58:43;;;;;;;8.63;5.80;;;;;;;11.54;74.24;99454.63;4841816;29;20415;-76
2024/02/21 13:01:09;;;;;;;8.13;5.53;;;;;;;11.59;75.65;99441.16;4842315;29;20057;-76
2024/02/21 13:03:37;;;;;;;15.88;5.97;;;;;;;11.62;75.27;99469.94;4841851;29;20077;-76
2024/02/21 13:06:06;;;;;;;9.00;5.07;;;;;;;11.67;75.13;99456.47;4825402;29;20058;-76
2024/02/21 13:08:34;;;;;;;9.40;5.53;;;;;;;11.68;74.65;99464.25;4841753;29;20070;-77
2024/02/21 13:11:01;;;;;;;9.52;5.07;;;;;;;11.72;74.49;99443.81;4841922;29;20469;-77
2024/02/21 13:13:28;;;;;;;9.63;5.35;;;;;;;11.76;74.73;99444.44;4841700;29;20097;-77
2024/02/21 13:15:54;;;;;;;13.20;5.35;;;;;;;11.74;73.54;99407.66;4841861;29;20054;-77
2024/02/21 13:18:21;;;;;;;9.23;5.20;;;;;;;11.78;74.41;99401.19;4841315;29;20144;-76
2024/02/21 13:20:48;;;;;;;7.43;4.70;;;;;;;11.80;74.94;99383.47;4841785;29;20061;-76
2024/02/21 13:23:15;;;;;;;11.52;5.80;;;;;;;11.86;75.62;99384.88;4841311;29;20054;-76
2024/02/21 13:25:41;;;;;;;8.77;5.25;;;;;;;11.89;75.28;99397.00;4841773;29;20150;-77
2024/02/21 13:28:09;;;;;;;15.55;6.00;;;;;;;11.92;75.23;99431.09;4841293;29;20500;-76
2024/02/21 13:30:36;;;;;;;8.55;5.55;;;;;;;11.94;74.94;99422.13;4824950;29;20527;-76
2024/02/21 13:33:03;;;;;;;11.98;6.30;;;;;;;11.96;74.85;99432.56;4841245;29;20145;-77
2024/02/21 13:35:30;;;;;;;10.43;5.88;;;;;;;11.94;73.95;99439.72;4841515;29;20069;-76
2024/02/21 13:37:56;;;;;;;14.55;6.65;;;;;;;11.92;73.95;99412.63;4841293;29;20068;-76
2024/02/21 13:40:23;;;;;;;13.23;6.63;;;;;;;11.89;73.00;99418.91;4841219;29;20061;-77
2024/02/21 13:42:51;;;;;;;13.00;5.80;;;;;;;11.89;73.35;99407.53;4841220;29;20066;-76
2024/02/21 13:45:19;;;;;;;11.80;5.95;;;;;;;11.88;73.83;99392.69;4841164;29;20496;-76
2024/02/21 13:47:46;;;;;;;13.35;6.25;;;;;;;11.85;73.15;99401.66;4840876;29;20110;-76
2024/02/21 13:50:14;;;;;;;11.77;6.40;;;;;;;11.81;72.99;99379.91;4841269;29;20068;-76
2024/02/21 13:52:41;;;;;;;15.40;6.43;;;;;;;11.80;73.33;99370.31;4840983;29;20560;-76
2024/02/21 13:55:11;;;;;;;10.50;6.43;;;;;;;11.78;73.29;99368.72;4841019;29;20054;-76
2024/02/21 13:57:37;;;;;;;11.35;5.97;;;;;;;11.76;73.51;99362.69;4840717;29;20515;-76
2024/02/21 14:00:05;;;;;;;10.98;6.05;;;;;;;11.73;73.43;99355.84;4840565;29;20451;-76
2024/02/21 14:02:31;;;;;;;13.77;5.43;;;;;;;11.71;73.18;99342.75;4840888;29;20062;-76
2024/02/21 14:04:58;;;;;;;15.98;6.28;;;;;;;11.71;73.24;99334.03;4840474;29;20064;-76
2024/02/21 14:07:25;;;;;;;10.70;5.97;;;;;;;11.73;73.44;99327.69;4824140;29;20150;-76
2024/02/21 14:09:52;;;;;;;11.95;6.45;;;;;;;11.76;73.49;99316.09;4840560;29;20057;-77
2024/02/21 14:12:20;;;;;;;13.07;6.28;;;;;;;11.79;73.39;99297.41;4840516;29;20058;-76
2024/02/21 14:14:47;;;;;;;12.95;6.13;;;;;;;11.82;74.00;99299.81;4840429;29;20072;-76
2024/02/21 14:17:14;;;;;;;10.98;5.95;;;;;;;11.86;73.73;99272.28;4824064;29;20123;-77
2024/02/21 14:19:41;;;;;;;11.07;6.13;;;;;;;11.89;73.79;99263.31;4840521;29;20089;-76
2024/02/21 14:22:10;;;;;;;9.32;5.75;;;;;;;11.92;73.85;99242.00;4840216;29;20054;-76
2024/02/21 14:24:36;;;;;;;11.85;6.32;;;;;;;11.97;73.95;99228.50;4823972;29;20761;-76
2024/02/21 14:27:04;;;;;;;8.98;5.85;;;;;;;11.99;73.96;99200.22;4840423;29;20563;-76
2024/02/21 14:29:30;;;;;;;15.77;6.45;;;;;;;12.01;74.35;99187.78;4840436;29;20077;-76
2024/02/21 14:31:57;;;;;;;14.40;6.93;;;;;;;12.04;74.36;99198.06;4840316;29;20070;-76
2024/02/21 14:34:23;;;;;;;16.38;6.93;;;;;;;12.06;74.33;99195.34;4840140;29;20522;-77
2024/02/21 14:36:50;;;;;;;11.98;7.32;;;;;;;12.09;74.52;99201.28;4839856;29;20493;-77
2024/02/21 14:39:17;;;;;;;11.65;7.00;;;;;;;12.11;74.63;99193.22;4823658;29;20149;-76
2024/02/21 14:41:44;;;;;;;15.77;8.18;;;;;;;12.12;73.83;99185.19;4823593;29;20149;-76
2024/02/21 14:44:10;;;;;;;17.10;8.23;;;;;;;12.12;73.88;99179.09;4840212;29;20057;-76
2024/02/21 14:46:40;;;;;;;15.13;7.90;;;;;;;12.11;73.69;99178.25;4823746;29;20061;-77
2024/02/21 14:49:07;;;;;;;17.80;8.43;;;;;;;12.10;73.75;99178.34;4839806;29;20069;-77
2024/02/21 14:51:33;;;;;;;16.90;8.40;;;;;;;12.08;73.74;99175.00;4839943;29;20069;-77
2024/02/21 14:54:00;;;;;;;13.10;7.90;;;;;;;12.07;73.54;99157.50;4839829;29;20057;-77
2024/02/21 14:56:27;;;;;;;17.77;7.60;;;;;;;12.04;73.54;99155.88;4823693;29;20149;-76
2024/02/21 14:58:54;;;;;;;16.13;7.10;;;;;;;12.04;73.93;99149.78;4839800;29;20538;-76
2024/02/21 15:01:25;;;;;;;10.40;6.60;;;;;;;12.02;73.98;99135.84;4840015;29;20110;-76
2024/02/21 15:03:52;;;;;;;13.48;6.85;;;;;;;12.01;74.05;99135.00;4839701;29;20057;-76
2024/02/21 15:06:18;;;;;;;15.00;6.85;;;;;;;11.99;73.78;99124.56;4839717;29;20097;-77
2024/02/21 15:08:45;;;;;;;11.88;6.80;;;;;;;11.98;73.81;99125.53;4823311;29;20057;-76
2024/02/21 15:11:12;;;;;;;15.63;7.15;;;;;;;11.96;73.88;99124.78;4839895;29;20448;-77
2024/02/21 15:13:39;;;;;;;14.27;5.80;;;;;;;11.96;73.91;99111.59;4823359;29;20473;-77
2024/02/21 15:16:07;;;;;;;16.85;5.93;;;;;;;11.94;73.07;99102.97;4839804;29;20094;-76
2024/02/21 15:18:37;;;;;;;10.60;5.50;;;;;;;11.92;73.40;99101.41;4839584;29;20211;-76
2024/02/21 15:21:04;;;;;;;12.85;5.90;;;;;;;11.90;73.33;99088.31;4839939;29;20058;-76
2024/02/21 15:23:31;;;;;;;12.52;5.72;;;;;;;11.89;73.57;99091.06;4839331;29;20150;-77
2024/02/21 15:25:59;;;;;;;13.50;5.13;;;;;;;11.85;73.04;99080.75;4839932;29;20081;-76
2024/02/21 15:28:28;;;;;;;13.05;5.53;;;;;;;11.83;72.83;99077.38;4839387;29;20080;-76
2024/02/21 15:30:55;;;;;;;14.85;5.20;;;;;;;11.81;72.86;99073.19;4839429;29;20066;-77
2024/02/21 15:33:22;;;;;;;15.65;5.22;;;;;;;11.78;72.92;99078.66;4838816;29;20129;-76
2024/02/21 15:35:50;;;;;;;11.82;5.03;;;;;;;11.74;72.54;99059.59;4839646;29;20064;-76
2024/02/21 15:38:17;;;;;;;14.40;4.63;;;;;;;11.71;72.67;99057.19;4839655;29;20123;-77
2024/02/21 15:40:43;;;;;;;9.95;3.95;;;;;;;11.68;72.78;99049.50;4839687;29;20094;-76
2024/02/21 15:43:10;;;;;;;13.15;4.70;;;;;;;11.65;73.09;99037.38;4839844;29;20085;-76
2024/02/21 15:45:39;;;;;;;10.73;3.92;;;;;;;11.64;73.26;99029.59;4839415;29;20141;-79
2024/02/21 15:48:07;;;;;;;11.80;4.20;;;;;;;11.62;72.81;99034.97;4839485;29;20053;-77
2024/02/21 15:50:35;;;;;;;13.00;4.50;;;;;;;11.61;72.94;99030.66;4839380;29;20138;-77
2024/02/21 15:53:02;;;;;;;9.68;3.78;;;;;;;11.60;73.58;99035.06;4839788;29;20089;-77
2024/02/21 15:55:29;;;;;;;10.40;4.10;;;;;;;11.58;72.75;99029.09;4839805;29;20148;-78
2024/02/21 15:57:56;;;;;;;9.02;4.28;;;;;;;11.58;73.29;99026.44;4839459;29;20124;-78
2024/02/21 16:00:23;;;;;;;13.27;4.15;;;;;;;11.56;73.12;99022.25;4839388;29;20061;-77
2024/02/21 16:02:50;;;;;;;9.68;3.88;;;;;;;11.55;73.00;99029.28;4839329;29;20093;-80
2024/02/21 16:05:17;;;;;;;10.13;3.50;;;;;;;11.53;72.55;99020.69;4839322;29;20397;-78
2024/02/21 16:07:44;;;;;;;13.88;3.80;;;;;;;11.52;73.07;99021.63;4839314;29;20500;-78
2024/02/21 16:10:11;;;;;;;14.85;4.25;;;;;;;11.51;73.02;99027.84;4839419;29;20066;-78
2024/02/21 16:12:40;;;;;;;14.27;4.30;;;;;;;11.47;72.49;99018.47;4839375;29;20096;-77
2024/02/21 16:15:08;;;;;;;13.50;5.05;;;;;;;11.46;72.16;99032.59;4839467;29;20074;-76
2024/02/21 16:17:34;;;;;;;12.00;3.70;;;;;;;11.45;73.02;99025.66;4826251;29;20100;-76
2024/02/21 16:20:03;;;;;;;10.32;3.67;;;;;;;11.45;72.96;99015.13;4826701;29;20112;-76
2024/02/21 16:22:31;;;;;;;14.23;4.22;;;;;;;11.44;73.57;99002.91;4842945;29;20122;-76
2024/02/21 16:24:58;;;;;;;15.32;3.65;;;;;;;11.42;73.38;99007.44;4842318;29;20145;-77
2024/02/21 16:27:24;;;;;;;13.13;4.10;;;;;;;11.41;73.19;99003.97;4841974;29;20632;-78
2024/02/21 16:29:51;;;;;;;10.25;3.92;;;;;;;11.40;72.61;98996.19;4842101;29;20053;-76
2024/02/21 16:32:17;;;;;;;10.13;3.88;;;;;;;11.39;72.99;98989.19;4841925;29;20541;-76
2024/02/21 16:34:44;;;;;;;9.05;3.88;;;;;;;11.40;73.20;98988.28;4841982;29;20521;-76
2024/02/21 16:37:12;;;;;;;7.95;3.88;;;;;;;11.39;73.29;98982.16;4841952;29;20428;-78
2024/02/21 16:39:40;;;;;;;10.32;4.32;;;;;;;11.38;73.22;98969.94;4842203;29;20571;-78
2024/02/21 16:42:06;;;;;;;12.60;4.47;;;;;;;11.41;73.49;98971.50;4842315;29;20054;-76